createdAt,value
2023-06-19T00:02:00.425Z,21.33
2023-06-19T00:04:32.719Z,21.53
2023-06-19T00:07:02.087Z,20.97
2023-06-19T00:09:30.509Z,21.63
2023-06-19T00:11:59.810Z,21.93
2023-06-19T00:14:27.961Z,23.13
2023-06-19T00:16:56.559Z,21.80
2023-06-19T00:19:26.084Z,22.27
2023-06-19T00:21:58.594Z,21.27
2023-06-19T00:24:27.145Z,21.17
2023-06-19T00:26:55.604Z,19.60
2023-06-19T00:29:23.731Z,20.90
2023-06-19T00:31:56.457Z,19.20
2023-06-19T00:34:26.302Z,17.77
2023-06-19T00:36:57.338Z,18.93
2023-06-19T00:39:26.498Z,17.73
2023-06-19T00:41:54.588Z,17.10
2023-06-19T00:44:22.769Z,18.93
2023-06-19T00:46:52.544Z,19.00
2023-06-19T00:49:20.962Z,17.30
2023-06-19T00:51:50.529Z,16.03
2023-06-19T00:54:18.772Z,16.50
2023-06-19T00:56:50.638Z,16.20
2023-06-19T00:59:19.604Z,17.53
2023-06-19T01:01:50.312Z,15.87
2023-06-19T01:04:18.547Z,15.67
2023-06-19T01:06:59.061Z,14.63
2023-06-19T01:09:35.890Z,13.03
2023-06-19T01:12:11.885Z,13.67
2023-06-19T01:14:44.413Z,14.77
2023-06-19T01:17:12.715Z,14.30
2023-06-19T01:19:40.873Z,14.10
2023-06-19T01:22:10.709Z,14.73
2023-06-19T01:24:38.899Z,14.90
2023-06-19T01:27:07.517Z,13.73
2023-06-19T01:29:38.261Z,14.13
2023-06-19T01:32:09.679Z,13.60
2023-06-19T01:34:40.767Z,14.80
2023-06-19T01:37:10.805Z,12.17
2023-06-19T01:39:39.312Z,14.57
2023-06-19T01:42:10.432Z,13.03
2023-06-19T01:44:38.582Z,12.87
2023-06-19T01:47:10.597Z,12.73
2023-06-19T01:49:38.714Z,11.67
2023-06-19T01:52:07.710Z,11.30
2023-06-19T01:54:37.514Z,10.60
2023-06-19T01:57:06.067Z,11.43
2023-06-19T01:59:34.226Z,9.80
2023-06-19T02:02:05.037Z,9.80
2023-06-19T02:04:33.157Z,11.10
2023-06-19T02:07:01.384Z,10.10
2023-06-19T02:09:29.877Z,8.90
2023-06-19T02:11:59.403Z,9.83
2023-06-19T02:14:27.830Z,11.30
2023-06-19T02:16:56.316Z,10.20
2023-06-19T02:19:24.462Z,9.23
2023-06-19T02:21:52.696Z,9.77
2023-06-19T02:24:21.231Z,10.93
2023-06-19T02:26:49.769Z,10.37
2023-06-19T02:29:19.295Z,9.60
2023-06-19T02:31:47.413Z,9.33
2023-06-19T02:34:15.611Z,9.90
2023-06-19T02:36:43.721Z,8.57
2023-06-19T02:39:11.882Z,9.20
2023-06-19T02:41:40.372Z,9.17
2023-06-19T02:44:08.784Z,8.50
2023-06-19T02:46:38.627Z,8.93
2023-06-19T02:49:08.588Z,8.80
2023-06-19T02:51:37.023Z,8.50
2023-06-19T02:54:08.724Z,8.93
2023-06-19T02:56:36.829Z,9.63
2023-06-19T02:59:04.946Z,8.37
2023-06-19T03:01:33.608Z,11.77
2023-06-19T03:04:03.191Z,13.30
2023-06-19T03:06:31.896Z,12.60
2023-06-19T03:09:00.582Z,9.83
2023-06-19T03:11:28.766Z,11.13
2023-06-19T03:14:08.283Z,8.97
2023-06-19T03:16:36.570Z,12.00
2023-06-19T03:19:06.452Z,8.33
2023-06-19T03:21:36.607Z,11.67
2023-06-19T03:24:05.308Z,9.47
2023-06-19T03:26:33.762Z,8.30
2023-06-19T03:29:02.215Z,10.57
2023-06-19T03:31:32.602Z,8.50
2023-06-19T03:34:01.021Z,8.17
2023-06-19T03:36:30.517Z,12.40
2023-06-19T03:38:58.926Z,10.70
2023-06-19T03:41:27.323Z,8.10
2023-06-19T03:43:55.393Z,7.60
2023-06-19T03:46:38.706Z,9.20
2023-06-19T03:49:07.481Z,7.70
2023-06-19T03:51:36.993Z,7.90
2023-06-19T03:54:05.219Z,8.00
2023-06-19T03:56:33.345Z,8.00
2023-06-19T03:59:02.447Z,7.60
2023-06-19T04:01:30.610Z,8.70
2023-06-19T04:03:59.219Z,6.40
2023-06-19T04:06:27.649Z,7.07
2023-06-19T04:08:57.424Z,11.90
2023-06-19T04:11:25.516Z,7.40
2023-06-19T04:13:56.402Z,7.90
2023-06-19T04:16:24.961Z,6.80
2023-06-19T04:18:53.153Z,6.37
2023-06-19T04:21:21.597Z,11.67
2023-06-19T04:23:49.721Z,7.30
2023-06-19T04:26:20.150Z,6.33
2023-06-19T04:28:48.574Z,6.97
2023-06-19T04:31:20.533Z,5.90
2023-06-19T04:33:48.653Z,6.57
2023-06-19T04:36:16.759Z,5.83
2023-06-19T04:38:45.251Z,5.73
2023-06-19T04:41:14.148Z,5.80
2023-06-19T04:43:44.247Z,5.83
2023-06-19T04:46:12.506Z,5.30
2023-06-19T04:48:41.624Z,5.73
2023-06-19T04:51:10.060Z,6.37
2023-06-19T04:53:38.383Z,5.73
2023-06-19T04:56:06.751Z,7.27
2023-06-19T04:58:35.191Z,5.40
2023-06-19T05:01:04.732Z,5.40
2023-06-19T05:03:33.151Z,4.97
2023-06-19T05:06:01.558Z,4.97
2023-06-19T05:08:38.412Z,4.70
2023-06-19T05:11:06.860Z,6.97
2023-06-19T05:13:34.965Z,4.30
2023-06-19T05:16:04.942Z,5.73
2023-06-19T05:18:33.168Z,5.80
2023-06-19T05:21:01.277Z,4.97
2023-06-19T05:23:29.752Z,5.23
2023-06-19T05:25:57.878Z,4.80
2023-06-19T05:28:26.308Z,5.80
2023-06-19T05:30:54.762Z,6.60
2023-06-19T05:33:28.147Z,4.63
2023-06-19T05:35:57.051Z,5.53
2023-06-19T05:38:27.029Z,4.40
2023-06-19T05:40:56.451Z,5.10
2023-06-19T05:43:25.771Z,4.80
2023-06-19T05:45:54.352Z,4.70
2023-06-19T05:48:22.805Z,4.50
2023-06-19T05:50:52.574Z,4.40
2023-06-19T05:53:21.038Z,4.23
2023-06-19T05:55:49.105Z,4.57
2023-06-19T05:58:21.013Z,4.03
2023-06-19T06:00:50.688Z,3.97
2023-06-19T06:03:19.162Z,5.53
2023-06-19T06:05:50.001Z,4.10
2023-06-19T06:08:19.796Z,4.23
2023-06-19T06:10:47.921Z,4.03
2023-06-19T06:13:16.087Z,4.33
2023-06-19T06:15:44.543Z,3.23
2023-06-19T06:18:14.781Z,3.47
2023-06-19T06:20:42.952Z,4.60
2023-06-19T06:23:11.383Z,4.60
2023-06-19T06:25:41.185Z,4.20
2023-06-19T06:28:09.601Z,4.30
2023-06-19T06:30:37.784Z,3.57
2023-06-19T06:33:06.294Z,4.80
2023-06-19T06:35:36.883Z,4.73
2023-06-19T06:38:05.379Z,4.17
2023-06-19T06:40:33.589Z,3.17
2023-06-19T06:43:03.483Z,3.43
2023-06-19T06:45:31.954Z,6.00
2023-06-19T06:48:00.222Z,3.77
2023-06-19T06:50:28.811Z,3.23
2023-06-19T06:52:56.942Z,3.13
2023-06-19T06:55:25.367Z,3.93
2023-06-19T06:57:56.455Z,4.23
2023-06-19T07:00:26.135Z,3.50
2023-06-19T07:02:54.832Z,6.73
2023-06-19T07:05:23.371Z,3.20
2023-06-19T07:07:56.847Z,4.50
2023-06-19T07:10:25.387Z,4.70
2023-06-19T07:12:53.665Z,4.10
2023-06-19T07:15:27.965Z,3.70
2023-06-19T07:17:56.440Z,4.30
2023-06-19T07:20:25.159Z,3.03
2023-06-19T07:22:56.840Z,4.20
2023-06-19T07:25:26.513Z,3.20
2023-06-19T07:27:54.937Z,3.30
2023-06-19T07:30:23.459Z,3.53
2023-06-19T07:32:53.229Z,3.63
2023-06-19T07:35:21.734Z,3.40
2023-06-19T07:37:50.543Z,3.30
2023-06-19T07:40:18.958Z,3.50
2023-06-19T07:42:47.576Z,3.00
2023-06-19T07:45:16.009Z,2.93
2023-06-19T07:47:44.513Z,3.33
2023-06-19T07:50:14.143Z,4.67
2023-06-19T07:52:42.572Z,3.47
2023-06-19T07:55:11.344Z,2.70
2023-06-19T07:57:39.751Z,3.63
2023-06-19T08:00:12.552Z,3.77
2023-06-19T08:02:41.047Z,3.50
2023-06-19T08:05:10.331Z,4.03
2023-06-19T08:07:40.394Z,4.93
2023-06-19T08:10:14.033Z,3.60
2023-06-19T08:12:43.627Z,5.07
2023-06-19T08:15:15.563Z,3.13
2023-06-19T08:17:44.121Z,5.67
2023-06-19T08:20:12.813Z,3.07
2023-06-19T08:22:42.592Z,3.07
2023-06-19T08:25:11.181Z,4.00
2023-06-19T08:27:39.296Z,5.90
2023-06-19T08:30:08.757Z,3.83
2023-06-19T08:32:36.923Z,3.30
2023-06-19T08:35:05.503Z,3.97
2023-06-19T08:37:33.948Z,4.97
2023-06-19T08:40:05.169Z,3.57
2023-06-19T08:42:33.591Z,3.70
2023-06-19T08:45:02.101Z,6.07
2023-06-19T08:47:32.195Z,4.07
2023-06-19T08:50:02.646Z,6.50
2023-06-19T08:52:31.510Z,3.40
2023-06-19T08:55:04.527Z,3.10
2023-06-19T08:57:36.558Z,3.07
2023-06-19T09:00:06.984Z,3.00
2023-06-19T09:02:46.992Z,3.23
2023-06-19T09:05:19.551Z,3.93
2023-06-19T09:07:56.553Z,3.33
2023-06-19T09:10:26.999Z,3.23
2023-06-19T09:12:59.565Z,3.20
2023-06-19T09:15:30.119Z,3.63
2023-06-19T09:18:05.649Z,2.90
2023-06-19T09:20:34.268Z,3.67
2023-06-19T09:23:02.712Z,5.90
2023-06-19T09:25:32.618Z,5.80
2023-06-19T09:28:02.649Z,3.53
2023-06-19T09:30:31.083Z,6.73
2023-06-19T09:33:08.950Z,6.27
2023-06-19T09:35:37.582Z,3.80
2023-06-19T09:38:05.708Z,3.50
2023-06-19T09:40:35.213Z,3.60
2023-06-19T09:43:03.623Z,4.00
2023-06-19T09:45:31.818Z,6.40
2023-06-19T09:47:59.938Z,3.73
2023-06-19T09:50:28.512Z,4.03
2023-06-19T09:52:57.032Z,4.17
2023-06-19T09:55:25.295Z,3.73
2023-06-19T09:57:54.870Z,4.80
2023-06-19T10:00:27.857Z,5.93
2023-06-19T10:02:59.370Z,4.17
2023-06-19T10:05:33.157Z,5.53
2023-06-19T10:08:02.632Z,6.40
2023-06-19T10:10:34.029Z,6.23
2023-06-19T10:13:14.798Z,6.17
2023-06-19T10:15:43.693Z,6.50
2023-06-19T10:18:17.335Z,4.47
2023-06-19T10:20:47.297Z,4.00
2023-06-19T10:23:20.236Z,4.00
2023-06-19T10:25:49.934Z,3.77
2023-06-19T10:28:23.516Z,5.73
2023-06-19T10:30:55.884Z,6.90
2023-06-19T10:33:25.151Z,6.47
2023-06-19T10:35:56.904Z,6.10
2023-06-19T10:38:25.437Z,8.60
2023-06-19T10:40:53.540Z,7.67
2023-06-19T10:43:31.879Z,6.00
2023-06-19T10:46:00.351Z,6.07
2023-06-19T10:48:28.505Z,7.43
2023-06-19T10:50:58.725Z,6.90
2023-06-19T10:53:28.012Z,6.90
2023-06-19T10:56:00.042Z,6.77
2023-06-19T10:58:29.680Z,7.10
2023-06-19T11:01:03.075Z,6.63
2023-06-19T11:03:31.569Z,6.13
2023-06-19T11:06:00.036Z,7.47
2023-06-19T11:08:28.521Z,6.43
2023-06-19T11:10:57.375Z,5.20
2023-06-19T11:13:25.495Z,6.27
2023-06-19T11:15:55.121Z,6.27
2023-06-19T11:18:23.294Z,6.63
2023-06-19T11:20:56.807Z,6.70
2023-06-19T11:23:28.468Z,6.67
2023-06-19T11:25:57.668Z,6.63
2023-06-19T11:28:30.603Z,7.10
2023-06-19T11:31:02.556Z,6.70
2023-06-19T11:33:31.633Z,6.30
2023-06-19T11:36:02.307Z,6.70
2023-06-19T11:38:30.513Z,6.60
2023-06-19T11:40:59.013Z,6.10
2023-06-19T11:43:27.551Z,6.30
2023-06-19T11:45:56.038Z,6.20
2023-06-19T11:48:26.273Z,6.67
2023-06-19T11:50:54.988Z,6.17
2023-06-19T11:53:23.196Z,6.33
2023-06-19T11:55:51.327Z,6.53
2023-06-19T11:58:21.470Z,6.10
2023-06-19T12:00:49.929Z,6.80
2023-06-19T12:03:20.902Z,6.27
2023-06-19T12:05:50.483Z,5.67
2023-06-19T12:08:18.901Z,5.50
2023-06-19T12:10:47.320Z,5.70
2023-06-19T12:13:15.446Z,6.30
2023-06-19T12:15:43.582Z,5.73
2023-06-19T12:18:13.491Z,5.87
2023-06-19T12:20:41.625Z,5.90
2023-06-19T12:23:11.412Z,5.57
2023-06-19T12:25:39.878Z,6.00
2023-06-19T12:28:09.359Z,5.87
2023-06-19T12:30:38.368Z,5.57
2023-06-19T12:33:07.377Z,5.80
2023-06-19T12:35:35.625Z,5.93
2023-06-19T12:38:06.667Z,4.93
2023-06-19T12:40:37.357Z,5.30
2023-06-19T12:43:05.492Z,5.30
2023-06-19T12:45:33.657Z,5.03
2023-06-19T12:48:01.976Z,5.20
2023-06-19T12:50:30.429Z,4.80
2023-06-19T12:52:58.852Z,5.27
2023-06-19T12:55:26.950Z,5.27
2023-06-19T12:57:56.475Z,5.30
2023-06-19T13:00:27.091Z,4.93
2023-06-19T13:02:55.417Z,5.40
2023-06-19T13:05:23.597Z,8.90
2023-06-19T13:07:52.064Z,5.27
2023-06-19T13:10:20.704Z,5.20
2023-06-19T13:12:48.910Z,5.00
2023-06-19T13:15:18.711Z,4.67
2023-06-19T13:17:47.195Z,5.10
2023-06-19T13:20:16.531Z,5.17
2023-06-19T13:22:45.822Z,5.00
2023-06-19T13:25:13.989Z,6.70
2023-06-19T13:27:42.411Z,4.77
2023-06-19T13:30:11.441Z,4.40
2023-06-19T13:32:41.328Z,5.20
2023-06-19T13:35:10.303Z,4.53
2023-06-19T13:37:40.159Z,4.90
2023-06-19T13:40:09.530Z,4.77
2023-06-19T13:42:37.724Z,5.07
2023-06-19T13:45:06.596Z,4.93
2023-06-19T13:47:34.842Z,4.53
2023-06-19T13:50:04.654Z,4.43
2023-06-19T13:52:33.159Z,4.77
2023-06-19T13:55:04.011Z,3.73
2023-06-19T13:57:32.209Z,4.30
2023-06-19T14:00:00.640Z,4.90
2023-06-19T14:02:29.098Z,5.17
2023-06-19T14:04:58.211Z,3.73
2023-06-19T14:07:28.038Z,4.13
2023-06-19T14:09:56.251Z,4.70
2023-06-19T14:12:24.375Z,4.73
2023-06-19T14:14:53.107Z,4.80
2023-06-19T14:17:21.652Z,3.87
2023-06-19T14:19:51.982Z,7.30
2023-06-19T14:22:20.455Z,4.90
2023-06-19T14:24:50.353Z,4.57
2023-06-19T14:27:18.777Z,4.03
2023-06-19T14:29:47.213Z,4.07
2023-06-19T14:32:15.334Z,3.97
2023-06-19T14:34:43.803Z,4.20
2023-06-19T14:37:12.207Z,6.27
2023-06-19T14:39:40.627Z,4.67
2023-06-19T14:42:10.905Z,4.20
2023-06-19T14:44:39.465Z,3.70
2023-06-19T14:47:08.140Z,4.37
2023-06-19T14:49:36.567Z,4.27
2023-06-19T14:52:04.916Z,5.50
2023-06-19T14:54:32.991Z,4.23
2023-06-19T14:57:01.398Z,4.63
2023-06-19T14:59:32.097Z,4.07
2023-06-19T15:02:00.389Z,3.63
2023-06-19T15:04:28.897Z,5.10
2023-06-19T15:06:57.151Z,4.53
2023-06-19T15:09:25.256Z,4.23
2023-06-19T15:11:53.665Z,4.17
2023-06-19T15:14:21.800Z,4.30
2023-06-19T15:16:51.276Z,4.30
2023-06-19T15:19:19.774Z,4.40
2023-06-19T15:21:48.195Z,3.87
2023-06-19T15:24:16.585Z,5.83
2023-06-19T15:26:45.119Z,4.13
2023-06-19T15:29:13.232Z,4.03
2023-06-19T15:31:41.673Z,4.00
2023-06-19T15:34:11.470Z,4.40
2023-06-19T15:36:39.904Z,4.07
2023-06-19T15:39:08.294Z,4.60
2023-06-19T15:41:36.737Z,4.23
2023-06-19T15:44:05.139Z,3.97
2023-06-19T15:46:33.550Z,4.23
2023-06-19T15:49:02.950Z,4.73
2023-06-19T15:51:32.416Z,4.07
2023-06-19T15:54:00.851Z,4.70
2023-06-19T15:56:29.731Z,3.77
2023-06-19T15:58:57.847Z,5.33
2023-06-19T16:01:26.268Z,4.63
2023-06-19T16:03:54.553Z,4.83
2023-06-19T16:06:22.790Z,4.07
2023-06-19T16:08:53.160Z,4.10
2023-06-19T16:11:21.628Z,4.50
2023-06-19T16:13:49.817Z,4.00
2023-06-19T16:16:18.030Z,4.23
2023-06-19T16:18:46.203Z,4.00
2023-06-19T16:21:16.370Z,3.40
2023-06-19T16:23:44.802Z,3.90
2023-06-19T16:26:14.268Z,4.40
2023-06-19T16:28:51.984Z,3.90
2023-06-19T16:31:20.419Z,4.47
2023-06-19T16:33:48.874Z,4.43
2023-06-19T16:36:21.966Z,4.30
2023-06-19T16:38:51.145Z,4.37
2023-06-19T16:41:21.057Z,4.00
2023-06-19T16:43:49.522Z,3.67
2023-06-19T16:46:17.668Z,4.23
2023-06-19T16:48:46.991Z,5.00
2023-06-19T16:51:15.432Z,3.97
2023-06-19T16:53:43.560Z,4.20
2023-06-19T16:56:11.983Z,3.83
2023-06-19T16:58:46.500Z,4.50
2023-06-19T17:01:14.628Z,3.93
2023-06-19T17:03:43.128Z,3.60
2023-06-19T17:06:11.319Z,3.60
2023-06-19T17:08:39.750Z,3.90
2023-06-19T17:11:08.202Z,3.97
2023-06-19T17:13:36.320Z,4.20
2023-06-19T17:16:06.089Z,4.00
2023-06-19T17:18:34.516Z,4.10
2023-06-19T17:21:02.946Z,4.23
2023-06-19T17:23:31.387Z,4.20
2023-06-19T17:25:59.849Z,4.83
2023-06-19T17:28:28.274Z,3.20
2023-06-19T17:30:56.682Z,5.87
2023-06-19T17:33:26.486Z,3.90
2023-06-19T17:35:54.882Z,4.43
2023-06-19T17:38:23.374Z,4.20
2023-06-19T17:40:51.808Z,3.90
2023-06-19T17:43:20.018Z,3.90
2023-06-19T17:45:48.120Z,5.53
2023-06-19T17:48:16.257Z,3.67
2023-06-19T17:50:45.907Z,4.37
2023-06-19T17:53:14.342Z,4.27
2023-06-19T17:55:44.480Z,3.70
2023-06-19T17:58:12.726Z,4.47
2023-06-19T18:00:40.845Z,4.27
2023-06-19T18:03:10.837Z,6.63
2023-06-19T18:05:39.324Z,3.77
2023-06-19T18:08:09.114Z,4.33
2023-06-19T18:10:37.258Z,4.90
2023-06-19T18:13:05.356Z,3.77
2023-06-19T18:15:33.859Z,3.87
2023-06-19T18:18:02.326Z,3.90
2023-06-19T18:20:30.689Z,3.90
2023-06-19T18:22:58.893Z,4.10
2023-06-19T18:25:28.684Z,4.60
2023-06-19T18:27:57.110Z,4.10
2023-06-19T18:30:25.559Z,4.37
2023-06-19T18:32:53.943Z,4.27
2023-06-19T18:35:22.385Z,4.33
2023-06-19T18:37:51.186Z,3.90
2023-06-19T18:40:19.601Z,4.17
2023-06-19T18:42:49.064Z,3.73
2023-06-19T18:45:17.306Z,3.60
2023-06-19T18:47:45.803Z,5.40
2023-06-19T18:50:15.365Z,4.10
2023-06-19T18:52:43.803Z,4.57
2023-06-19T18:55:11.901Z,4.57
2023-06-19T18:57:39.970Z,4.40
2023-06-19T19:00:17.689Z,4.10
2023-06-19T19:02:46.156Z,3.80
2023-06-19T19:05:14.638Z,4.10
2023-06-19T19:07:43.121Z,3.70
2023-06-19T19:10:11.806Z,4.17
2023-06-19T19:12:40.242Z,4.40
2023-06-19T19:15:09.197Z,3.90
2023-06-19T19:17:39.054Z,3.77
2023-06-19T19:20:09.469Z,3.40
2023-06-19T19:22:37.880Z,4.23
2023-06-19T19:25:06.483Z,3.83
2023-06-19T19:27:35.455Z,3.63
2023-06-19T19:30:03.952Z,3.57
2023-06-19T19:32:32.197Z,3.80
2023-06-19T19:35:01.745Z,3.50
2023-06-19T19:37:30.152Z,3.60
2023-06-19T19:39:58.546Z,5.20
2023-06-19T19:42:26.973Z,3.90
2023-06-19T19:44:55.400Z,3.60
2023-06-19T19:47:23.874Z,3.97
2023-06-19T19:49:57.143Z,3.87
2023-06-19T19:52:26.919Z,3.73
2023-06-19T19:54:57.471Z,4.13
2023-06-19T19:57:25.598Z,4.03
2023-06-19T19:59:54.005Z,3.93
2023-06-19T20:02:22.520Z,3.70
2023-06-19T20:04:52.531Z,4.20
2023-06-19T20:07:20.972Z,4.00
2023-06-19T20:09:50.467Z,3.97
2023-06-19T20:12:21.991Z,4.10
2023-06-19T20:14:50.916Z,4.67
2023-06-19T20:17:19.351Z,4.63
2023-06-19T20:19:51.216Z,4.50
2023-06-19T20:22:19.662Z,4.40
2023-06-19T20:24:48.197Z,4.83
2023-06-19T20:27:18.139Z,6.63
2023-06-19T20:29:46.539Z,4.87
2023-06-19T20:32:14.918Z,4.87
2023-06-19T20:34:43.333Z,4.57
2023-06-19T20:37:15.167Z,4.90
2023-06-19T20:39:43.590Z,5.60
2023-06-19T20:42:11.641Z,6.37
2023-06-19T20:44:41.165Z,6.80
2023-06-19T20:47:09.418Z,5.00
2023-06-19T20:49:39.281Z,5.30
2023-06-19T20:52:07.871Z,8.93
2023-06-19T20:54:36.293Z,5.67
2023-06-19T20:57:04.771Z,6.00
2023-06-19T20:59:33.246Z,5.50
2023-06-19T21:02:02.846Z,7.13
2023-06-19T21:04:31.459Z,5.50
2023-06-19T21:06:59.611Z,6.13
2023-06-19T21:09:28.057Z,6.00
2023-06-19T21:11:56.594Z,6.70
2023-06-19T21:14:24.768Z,5.90
2023-06-19T21:16:52.954Z,5.63
2023-06-19T21:19:22.436Z,6.40
2023-06-19T21:21:50.846Z,6.10
2023-06-19T21:24:19.029Z,6.00
2023-06-19T21:26:47.164Z,6.37
2023-06-19T21:29:18.355Z,7.20
2023-06-19T21:31:46.759Z,5.63
2023-06-19T21:34:14.844Z,5.80
2023-06-19T21:36:44.632Z,5.67
2023-06-19T21:39:13.041Z,6.23
2023-06-19T21:41:41.488Z,6.33
2023-06-19T21:44:09.922Z,7.37
2023-06-19T21:46:38.071Z,6.30
2023-06-19T21:49:06.255Z,6.97
2023-06-19T21:51:35.918Z,7.60
2023-06-19T21:54:05.436Z,5.77
2023-06-19T21:56:33.866Z,6.40
2023-06-19T21:59:02.301Z,6.00
2023-06-19T22:01:30.707Z,7.63
2023-06-19T22:03:59.212Z,6.30
2023-06-19T22:06:27.695Z,7.33
2023-06-19T22:09:00.954Z,6.60
2023-06-19T22:11:30.866Z,6.37
2023-06-19T22:14:00.346Z,7.60
2023-06-19T22:16:28.780Z,6.97
2023-06-19T22:19:01.721Z,11.83
2023-06-19T22:21:29.884Z,7.23
2023-06-19T22:23:58.349Z,6.50
2023-06-19T22:26:26.487Z,8.30
2023-06-19T22:28:55.970Z,6.40
2023-06-19T22:31:24.403Z,7.67
2023-06-19T22:33:57.653Z,6.57
2023-06-19T22:36:25.739Z,6.90
2023-06-19T22:38:54.229Z,12.73
2023-06-19T22:41:22.654Z,7.13
2023-06-19T22:43:50.784Z,6.90
2023-06-19T22:46:20.784Z,7.23
2023-06-19T22:48:51.821Z,6.67
2023-06-19T22:51:20.062Z,6.87
2023-06-19T22:53:48.473Z,7.10
2023-06-19T22:56:21.364Z,7.97
2023-06-19T22:58:51.328Z,7.27
2023-06-19T23:01:26.660Z,8.73
2023-06-19T23:03:55.289Z,9.53
2023-06-19T23:06:23.767Z,7.33
2023-06-19T23:08:52.174Z,7.50
2023-06-19T23:11:20.622Z,9.30
2023-06-19T23:13:49.026Z,6.87
2023-06-19T23:16:17.437Z,8.33
2023-06-19T23:18:46.919Z,8.43
2023-06-19T23:21:42.977Z,9.27
2023-06-19T23:24:12.331Z,7.80
2023-06-19T23:26:40.779Z,7.43
2023-06-19T23:29:09.315Z,14.30
2023-06-19T23:31:38.931Z,7.03
2023-06-19T23:34:10.709Z,8.53
2023-06-19T23:36:39.128Z,7.50
2023-06-19T23:39:07.245Z,7.90
2023-06-19T23:41:35.360Z,6.90
2023-06-19T23:44:04.161Z,8.10
2023-06-19T23:46:34.462Z,9.33
2023-06-19T23:49:02.787Z,10.00
2023-06-19T23:51:32.242Z,7.20
2023-06-19T23:54:03.767Z,6.90
2023-06-19T23:56:34.213Z,7.20
2023-06-19T23:59:02.598Z,8.83
